sensor_id;sensor_type;location;lat;lon;timestamp;P1;durP1;ratioP1;P2;durP2;ratioP2
21162;SDS011;10739;52.198;20.908;2023-01-28T00:01:12;49.55;;;24.73;;
21162;SDS011;10739;52.198;20.908;2023-01-28T00:03:41;49.25;;;24.98;;
21162;SDS011;10739;52.198;20.908;2023-01-28T00:06:12;47.35;;;25.13;;
21162;SDS011;10739;52.198;20.908;2023-01-28T00:08:40;37.25;;;18.45;;
21162;SDS011;10739;52.198;20.908;2023-01-28T00:11:07;53.40;;;26.23;;
21162;SDS011;10739;52.198;20.908;2023-01-28T00:13:36;49.97;;;24.83;;
21162;SDS011;10739;52.198;20.908;2023-01-28T00:16:04;50.33;;;26.15;;
21162;SDS011;10739;52.198;20.908;2023-01-28T00:18:35;48.53;;;24.42;;
21162;SDS011;10739;52.198;20.908;2023-01-28T00:21:03;50.97;;;25.60;;
21162;SDS011;10739;52.198;20.908;2023-01-28T00:23:34;49.23;;;25.87;;
21162;SDS011;10739;52.198;20.908;2023-01-28T00:26:04;51.95;;;25.35;;
21162;SDS011;10739;52.198;20.908;2023-01-28T00:28:34;48.53;;;25.35;;
21162;SDS011;10739;52.198;20.908;2023-01-28T00:31:08;53.08;;;26.40;;
21162;SDS011;10739;52.198;20.908;2023-01-28T00:33:46;51.60;;;25.50;;
21162;SDS011;10739;52.198;20.908;2023-01-28T00:36:15;46.70;;;24.60;;
21162;SDS011;10739;52.198;20.908;2023-01-28T00:38:42;51.33;;;25.17;;
21162;SDS011;10739;52.198;20.908;2023-01-28T00:41:24;51.63;;;26.55;;
21162;SDS011;10739;52.198;20.908;2023-01-28T00:43:54;50.08;;;25.75;;
21162;SDS011;10739;52.198;20.908;2023-01-28T00:46:21;52.13;;;25.13;;
21162;SDS011;10739;52.198;20.908;2023-01-28T00:48:48;50.25;;;26.83;;
21162;SDS011;10739;52.198;20.908;2023-01-28T00:51:15;48.33;;;25.25;;
21162;SDS011;10739;52.198;20.908;2023-01-28T00:53:44;45.45;;;25.00;;
21162;SDS011;10739;52.198;20.908;2023-01-28T00:56:12;46.15;;;24.50;;
21162;SDS011;10739;52.198;20.908;2023-01-28T00:58:41;47.92;;;24.58;;
21162;SDS011;10739;52.198;20.908;2023-01-28T01:01:10;50.95;;;26.20;;
21162;SDS011;10739;52.198;20.908;2023-01-28T01:03:43;46.42;;;25.52;;
21162;SDS011;10739;52.198;20.908;2023-01-28T01:06:11;45.70;;;24.38;;
21162;SDS011;10739;52.198;20.908;2023-01-28T01:08:40;51.40;;;24.25;;
21162;SDS011;10739;52.198;20.908;2023-01-28T01:11:08;48.25;;;24.38;;
21162;SDS011;10739;52.198;20.908;2023-01-28T01:13:36;48.13;;;24.63;;
21162;SDS011;10739;52.198;20.908;2023-01-28T01:16:08;52.08;;;24.52;;
21162;SDS011;10739;52.198;20.908;2023-01-28T01:18:42;44.75;;;24.25;;
21162;SDS011;10739;52.198;20.908;2023-01-28T01:21:15;47.88;;;25.23;;
21162;SDS011;10739;52.198;20.908;2023-01-28T01:23:45;51.90;;;25.45;;
21162;SDS011;10739;52.198;20.908;2023-01-28T01:26:12;49.00;;;25.50;;
21162;SDS011;10739;52.198;20.908;2023-01-28T01:28:39;48.40;;;24.85;;
21162;SDS011;10739;52.198;20.908;2023-01-28T01:31:07;47.85;;;24.27;;
21162;SDS011;10739;52.198;20.908;2023-01-28T01:33:41;41.63;;;22.85;;
21162;SDS011;10739;52.198;20.908;2023-01-28T01:36:11;48.53;;;24.02;;
21162;SDS011;10739;52.198;20.908;2023-01-28T01:38:39;45.30;;;23.13;;
21162;SDS011;10739;52.198;20.908;2023-01-28T01:41:23;46.92;;;24.77;;
21162;SDS011;10739;52.198;20.908;2023-01-28T01:43:57;47.65;;;24.70;;
21162;SDS011;10739;52.198;20.908;2023-01-28T01:46:30;50.30;;;23.52;;
21162;SDS011;10739;52.198;20.908;2023-01-28T01:49:18;44.63;;;23.58;;
21162;SDS011;10739;52.198;20.908;2023-01-28T01:52:12;47.58;;;23.60;;
21162;SDS011;10739;52.198;20.908;2023-01-28T01:54:47;46.73;;;24.37;;
21162;SDS011;10739;52.198;20.908;2023-01-28T01:57:22;50.75;;;25.52;;
21162;SDS011;10739;52.198;20.908;2023-01-28T01:59:59;48.17;;;23.38;;
21162;SDS011;10739;52.198;20.908;2023-01-28T02:02:32;45.63;;;24.00;;
21162;SDS011;10739;52.198;20.908;2023-01-28T02:05:06;51.10;;;22.85;;
21162;SDS011;10739;52.198;20.908;2023-01-28T02:07:36;50.58;;;25.10;;
21162;SDS011;10739;52.198;20.908;2023-01-28T02:10:04;45.83;;;22.30;;
21162;SDS011;10739;52.198;20.908;2023-01-28T02:12:35;52.15;;;24.65;;
21162;SDS011;10739;52.198;20.908;2023-01-28T02:15:08;49.05;;;24.00;;
21162;SDS011;10739;52.198;20.908;2023-01-28T02:17:40;45.65;;;23.65;;
21162;SDS011;10739;52.198;20.908;2023-01-28T02:37:20;51.55;;;24.10;;
21162;SDS011;10739;52.198;20.908;2023-01-28T02:39:53;52.88;;;23.23;;
21162;SDS011;10739;52.198;20.908;2023-01-28T02:42:29;50.40;;;24.40;;
21162;SDS011;10739;52.198;20.908;2023-01-28T02:45:01;53.35;;;24.05;;
21162;SDS011;10739;52.198;20.908;2023-01-28T02:47:36;46.25;;;22.02;;
21162;SDS011;10739;52.198;20.908;2023-01-28T02:50:21;48.97;;;23.95;;
21162;SDS011;10739;52.198;20.908;2023-01-28T02:56:06;44.23;;;22.93;;
21162;SDS011;10739;52.198;20.908;2023-01-28T03:08:00;43.65;;;23.85;;
21162;SDS011;10739;52.198;20.908;2023-01-28T03:10:51;42.30;;;23.30;;
21162;SDS011;10739;52.198;20.908;2023-01-28T03:13:39;44.28;;;23.85;;
21162;SDS011;10739;52.198;20.908;2023-01-28T03:16:27;45.65;;;22.63;;
21162;SDS011;10739;52.198;20.908;2023-01-28T03:19:16;41.38;;;22.58;;
21162;SDS011;10739;52.198;20.908;2023-01-28T03:22:03;42.58;;;22.77;;
21162;SDS011;10739;52.198;20.908;2023-01-28T03:24:48;43.17;;;23.05;;
21162;SDS011;10739;52.198;20.908;2023-01-28T03:27:55;41.35;;;22.90;;
21162;SDS011;10739;52.198;20.908;2023-01-28T03:30:57;37.33;;;21.23;;
21162;SDS011;10739;52.198;20.908;2023-01-28T03:33:50;40.38;;;23.45;;
21162;SDS011;10739;52.198;20.908;2023-01-28T03:36:38;34.83;;;21.35;;
21162;SDS011;10739;52.198;20.908;2023-01-28T03:39:16;39.78;;;20.83;;
21162;SDS011;10739;52.198;20.908;2023-01-28T03:42:21;39.58;;;21.92;;
21162;SDS011;10739;52.198;20.908;2023-01-28T03:44:43;38.53;;;20.95;;
21162;SDS011;10739;52.198;20.908;2023-01-28T03:47:25;39.75;;;21.52;;
21162;SDS011;10739;52.198;20.908;2023-01-28T03:49:55;44.83;;;22.20;;
21162;SDS011;10739;52.198;20.908;2023-01-28T03:52:27;37.45;;;21.27;;
21162;SDS011;10739;52.198;20.908;2023-01-28T03:54:56;36.50;;;21.80;;
21162;SDS011;10739;52.198;20.908;2023-01-28T03:57:24;32.45;;;20.23;;
21162;SDS011;10739;52.198;20.908;2023-01-28T03:59:52;34.90;;;20.65;;
21162;SDS011;10739;52.198;20.908;2023-01-28T04:02:20;38.20;;;21.20;;
21162;SDS011;10739;52.198;20.908;2023-01-28T04:04:47;37.08;;;21.27;;
21162;SDS011;10739;52.198;20.908;2023-01-28T04:07:14;31.27;;;19.08;;
21162;SDS011;10739;52.198;20.908;2023-01-28T04:09:41;34.55;;;20.17;;
21162;SDS011;10739;52.198;20.908;2023-01-28T04:12:08;38.65;;;19.98;;
21162;SDS011;10739;52.198;20.908;2023-01-28T04:14:35;31.17;;;19.85;;
21162;SDS011;10739;52.198;20.908;2023-01-28T04:17:04;32.72;;;19.80;;
21162;SDS011;10739;52.198;20.908;2023-01-28T04:19:31;34.35;;;19.10;;
21162;SDS011;10739;52.198;20.908;2023-01-28T04:22:03;35.25;;;19.17;;
21162;SDS011;10739;52.198;20.908;2023-01-28T04:24:31;34.80;;;19.33;;
21162;SDS011;10739;52.198;20.908;2023-01-28T04:26:58;31.70;;;18.67;;
21162;SDS011;10739;52.198;20.908;2023-01-28T04:29:24;31.65;;;18.25;;
21162;SDS011;10739;52.198;20.908;2023-01-28T04:31:51;31.65;;;18.92;;
21162;SDS011;10739;52.198;20.908;2023-01-28T04:34:17;33.80;;;19.30;;
21162;SDS011;10739;52.198;20.908;2023-01-28T04:36:44;31.08;;;17.10;;
21162;SDS011;10739;52.198;20.908;2023-01-28T04:39:11;32.53;;;18.65;;
21162;SDS011;10739;52.198;20.908;2023-01-28T04:41:37;31.92;;;18.05;;
21162;SDS011;10739;52.198;20.908;2023-01-28T04:44:04;31.23;;;17.67;;
21162;SDS011;10739;52.198;20.908;2023-01-28T04:46:31;30.13;;;17.90;;
21162;SDS011;10739;52.198;20.908;2023-01-28T04:48:57;34.30;;;18.02;;
21162;SDS011;10739;52.198;20.908;2023-01-28T04:51:23;33.17;;;18.25;;
21162;SDS011;10739;52.198;20.908;2023-01-28T04:53:50;31.15;;;18.67;;
21162;SDS011;10739;52.198;20.908;2023-01-28T04:56:16;32.88;;;17.23;;
21162;SDS011;10739;52.198;20.908;2023-01-28T04:58:42;34.17;;;19.35;;
21162;SDS011;10739;52.198;20.908;2023-01-28T05:01:08;31.40;;;17.52;;
21162;SDS011;10739;52.198;20.908;2023-01-28T05:03:35;33.70;;;18.52;;
21162;SDS011;10739;52.198;20.908;2023-01-28T05:06:01;32.42;;;18.58;;
21162;SDS011;10739;52.198;20.908;2023-01-28T05:08:29;36.70;;;18.30;;
21162;SDS011;10739;52.198;20.908;2023-01-28T05:10:55;35.80;;;18.52;;
21162;SDS011;10739;52.198;20.908;2023-01-28T05:13:22;28.40;;;16.88;;
21162;SDS011;10739;52.198;20.908;2023-01-28T05:15:52;32.58;;;18.27;;
21162;SDS011;10739;52.198;20.908;2023-01-28T05:18:18;34.22;;;18.52;;
21162;SDS011;10739;52.198;20.908;2023-01-28T05:20:45;31.77;;;17.38;;
21162;SDS011;10739;52.198;20.908;2023-01-28T05:23:12;25.75;;;16.98;;
21162;SDS011;10739;52.198;20.908;2023-01-28T05:25:38;32.70;;;17.55;;
21162;SDS011;10739;52.198;20.908;2023-01-28T05:28:05;31.65;;;18.67;;
21162;SDS011;10739;52.198;20.908;2023-01-28T05:30:31;34.30;;;18.17;;
21162;SDS011;10739;52.198;20.908;2023-01-28T05:32:57;31.20;;;17.55;;
21162;SDS011;10739;52.198;20.908;2023-01-28T05:35:24;29.95;;;17.95;;
21162;SDS011;10739;52.198;20.908;2023-01-28T05:37:50;32.22;;;17.75;;
21162;SDS011;10739;52.198;20.908;2023-01-28T05:40:16;30.02;;;17.50;;
21162;SDS011;10739;52.198;20.908;2023-01-28T05:42:43;29.50;;;17.48;;
21162;SDS011;10739;52.198;20.908;2023-01-28T05:45:09;30.50;;;17.48;;
21162;SDS011;10739;52.198;20.908;2023-01-28T05:47:36;31.27;;;16.90;;
21162;SDS011;10739;52.198;20.908;2023-01-28T05:50:04;34.22;;;20.63;;
21162;SDS011;10739;52.198;20.908;2023-01-28T05:52:32;32.13;;;17.70;;
21162;SDS011;10739;52.198;20.908;2023-01-28T05:54:58;32.03;;;18.65;;
21162;SDS011;10739;52.198;20.908;2023-01-28T05:57:25;32.45;;;18.65;;
21162;SDS011;10739;52.198;20.908;2023-01-28T05:59:52;34.22;;;18.88;;
21162;SDS011;10739;52.198;20.908;2023-01-28T06:02:18;32.72;;;18.40;;
21162;SDS011;10739;52.198;20.908;2023-01-28T06:04:44;34.50;;;19.35;;
21162;SDS011;10739;52.198;20.908;2023-01-28T06:07:10;32.25;;;18.50;;
21162;SDS011;10739;52.198;20.908;2023-01-28T06:09:38;37.03;;;17.98;;
21162;SDS011;10739;52.198;20.908;2023-01-28T06:12:04;34.28;;;18.15;;
21162;SDS011;10739;52.198;20.908;2023-01-28T06:14:31;36.45;;;19.58;;
21162;SDS011;10739;52.198;20.908;2023-01-28T06:16:57;34.50;;;19.55;;
21162;SDS011;10739;52.198;20.908;2023-01-28T06:19:23;34.55;;;19.70;;
21162;SDS011;10739;52.198;20.908;2023-01-28T06:21:49;34.88;;;19.88;;
21162;SDS011;10739;52.198;20.908;2023-01-28T06:24:16;32.25;;;19.48;;
21162;SDS011;10739;52.198;20.908;2023-01-28T06:26:42;33.60;;;18.25;;
21162;SDS011;10739;52.198;20.908;2023-01-28T06:29:08;33.00;;;19.00;;
21162;SDS011;10739;52.198;20.908;2023-01-28T06:31:35;34.38;;;18.67;;
21162;SDS011;10739;52.198;20.908;2023-01-28T06:34:01;34.92;;;18.58;;
21162;SDS011;10739;52.198;20.908;2023-01-28T06:36:27;34.50;;;18.52;;
21162;SDS011;10739;52.198;20.908;2023-01-28T06:38:53;30.15;;;17.48;;
21162;SDS011;10739;52.198;20.908;2023-01-28T06:41:20;36.67;;;19.60;;
21162;SDS011;10739;52.198;20.908;2023-01-28T06:43:46;39.35;;;19.25;;
21162;SDS011;10739;52.198;20.908;2023-01-28T06:46:12;35.35;;;19.88;;
21162;SDS011;10739;52.198;20.908;2023-01-28T06:48:39;35.05;;;19.00;;
21162;SDS011;10739;52.198;20.908;2023-01-28T06:51:05;41.20;;;19.15;;
21162;SDS011;10739;52.198;20.908;2023-01-28T06:53:31;35.17;;;19.00;;
21162;SDS011;10739;52.198;20.908;2023-01-28T06:55:58;34.92;;;18.92;;
21162;SDS011;10739;52.198;20.908;2023-01-28T06:58:24;40.13;;;21.30;;
21162;SDS011;10739;52.198;20.908;2023-01-28T07:00:51;36.47;;;19.30;;
21162;SDS011;10739;52.198;20.908;2023-01-28T07:03:18;38.08;;;18.75;;
21162;SDS011;10739;52.198;20.908;2023-01-28T07:05:44;33.83;;;19.27;;
21162;SDS011;10739;52.198;20.908;2023-01-28T07:08:12;37.88;;;19.77;;
21162;SDS011;10739;52.198;20.908;2023-01-28T07:10:38;37.78;;;20.10;;
21162;SDS011;10739;52.198;20.908;2023-01-28T07:13:04;40.38;;;19.77;;
21162;SDS011;10739;52.198;20.908;2023-01-28T07:15:30;38.25;;;20.42;;
21162;SDS011;10739;52.198;20.908;2023-01-28T07:17:57;38.42;;;19.80;;
21162;SDS011;10739;52.198;20.908;2023-01-28T07:20:23;44.67;;;20.10;;
21162;SDS011;10739;52.198;20.908;2023-01-28T07:22:49;37.00;;;20.23;;
21162;SDS011;10739;52.198;20.908;2023-01-28T07:25:16;35.75;;;19.95;;
21162;SDS011;10739;52.198;20.908;2023-01-28T07:27:49;40.83;;;19.40;;
21162;SDS011;10739;52.198;20.908;2023-01-28T07:30:20;39.58;;;20.45;;
21162;SDS011;10739;52.198;20.908;2023-01-28T07:32:52;35.97;;;19.60;;
21162;SDS011;10739;52.198;20.908;2023-01-28T07:35:20;36.20;;;18.93;;
21162;SDS011;10739;52.198;20.908;2023-01-28T07:37:54;34.97;;;18.38;;
21162;SDS011;10739;52.198;20.908;2023-01-28T07:40:23;30.42;;;16.92;;
21162;SDS011;10739;52.198;20.908;2023-01-28T07:42:50;30.40;;;17.08;;
21162;SDS011;10739;52.198;20.908;2023-01-28T07:45:17;31.27;;;16.95;;
21162;SDS011;10739;52.198;20.908;2023-01-28T07:47:43;32.53;;;17.55;;
21162;SDS011;10739;52.198;20.908;2023-01-28T07:50:17;30.98;;;15.93;;
21162;SDS011;10739;52.198;20.908;2023-01-28T07:52:43;33.50;;;17.00;;
21162;SDS011;10739;52.198;20.908;2023-01-28T07:55:10;26.55;;;15.57;;
21162;SDS011;10739;52.198;20.908;2023-01-28T07:57:55;30.88;;;17.67;;
21162;SDS011;10739;52.198;20.908;2023-01-28T08:00:26;34.65;;;17.40;;
21162;SDS011;10739;52.198;20.908;2023-01-28T08:02:55;31.02;;;17.13;;
21162;SDS011;10739;52.198;20.908;2023-01-28T08:05:25;30.23;;;17.15;;
21162;SDS011;10739;52.198;20.908;2023-01-28T08:08:01;28.35;;;17.17;;
21162;SDS011;10739;52.198;20.908;2023-01-28T08:10:28;26.45;;;15.85;;
21162;SDS011;10739;52.198;20.908;2023-01-28T08:12:55;31.05;;;17.25;;
21162;SDS011;10739;52.198;20.908;2023-01-28T08:15:23;29.50;;;16.80;;
21162;SDS011;10739;52.198;20.908;2023-01-28T08:17:50;29.63;;;17.08;;
21162;SDS011;10739;52.198;20.908;2023-01-28T08:20:20;32.00;;;17.08;;
21162;SDS011;10739;52.198;20.908;2023-01-28T08:22:47;33.17;;;17.92;;
21162;SDS011;10739;52.198;20.908;2023-01-28T08:25:14;28.30;;;17.88;;
21162;SDS011;10739;52.198;20.908;2023-01-28T08:27:40;30.98;;;17.45;;
21162;SDS011;10739;52.198;20.908;2023-01-28T08:30:06;28.83;;;16.90;;
21162;SDS011;10739;52.198;20.908;2023-01-28T08:32:34;29.30;;;17.67;;
21162;SDS011;10739;52.198;20.908;2023-01-28T08:35:02;35.80;;;19.20;;
21162;SDS011;10739;52.198;20.908;2023-01-28T08:37:29;30.73;;;18.10;;
21162;SDS011;10739;52.198;20.908;2023-01-28T08:39:56;32.42;;;17.67;;
21162;SDS011;10739;52.198;20.908;2023-01-28T08:42:22;30.73;;;17.13;;
21162;SDS011;10739;52.198;20.908;2023-01-28T08:44:48;27.90;;;17.75;;
21162;SDS011;10739;52.198;20.908;2023-01-28T08:47:15;27.10;;;16.52;;
21162;SDS011;10739;52.198;20.908;2023-01-28T08:49:41;31.50;;;16.48;;
21162;SDS011;10739;52.198;20.908;2023-01-28T08:52:07;24.13;;;15.48;;
21162;SDS011;10739;52.198;20.908;2023-01-28T08:54:35;24.70;;;15.40;;
21162;SDS011;10739;52.198;20.908;2023-01-28T08:57:02;31.48;;;15.70;;
21162;SDS011;10739;52.198;20.908;2023-01-28T08:59:28;26.15;;;15.90;;
21162;SDS011;10739;52.198;20.908;2023-01-28T09:01:55;23.77;;;15.60;;
21162;SDS011;10739;52.198;20.908;2023-01-28T09:04:21;26.52;;;16.75;;
21162;SDS011;10739;52.198;20.908;2023-01-28T09:06:47;22.55;;;15.18;;
21162;SDS011;10739;52.198;20.908;2023-01-28T09:09:14;27.23;;;15.65;;
21162;SDS011;10739;52.198;20.908;2023-01-28T09:11:40;28.10;;;16.05;;
21162;SDS011;10739;52.198;20.908;2023-01-28T09:14:06;27.13;;;15.93;;
21162;SDS011;10739;52.198;20.908;2023-01-28T09:16:33;30.25;;;17.17;;
21162;SDS011;10739;52.198;20.908;2023-01-28T09:18:59;25.95;;;16.00;;
21162;SDS011;10739;52.198;20.908;2023-01-28T09:21:25;29.48;;;18.20;;
21162;SDS011;10739;52.198;20.908;2023-01-28T09:23:52;27.70;;;16.95;;
21162;SDS011;10739;52.198;20.908;2023-01-28T09:26:20;26.05;;;15.77;;
21162;SDS011;10739;52.198;20.908;2023-01-28T09:28:46;33.58;;;16.63;;
21162;SDS011;10739;52.198;20.908;2023-01-28T09:31:12;26.83;;;17.00;;
21162;SDS011;10739;52.198;20.908;2023-01-28T09:33:39;24.70;;;15.45;;
21162;SDS011;10739;52.198;20.908;2023-01-28T09:36:06;24.58;;;16.60;;
21162;SDS011;10739;52.198;20.908;2023-01-28T09:38:35;33.13;;;18.10;;
21162;SDS011;10739;52.198;20.908;2023-01-28T09:41:09;34.85;;;17.83;;
21162;SDS011;10739;52.198;20.908;2023-01-28T09:47:04;28.50;;;17.17;;
21162;SDS011;10739;52.198;20.908;2023-01-28T09:49:47;28.00;;;16.52;;
21162;SDS011;10739;52.198;20.908;2023-01-28T09:52:18;28.95;;;18.15;;
21162;SDS011;10739;52.198;20.908;2023-01-28T09:54:50;29.02;;;18.23;;
21162;SDS011;10739;52.198;20.908;2023-01-28T09:57:28;25.60;;;16.40;;
21162;SDS011;10739;52.198;20.908;2023-01-28T10:00:11;30.98;;;17.00;;
21162;SDS011;10739;52.198;20.908;2023-01-28T10:02:54;27.10;;;16.48;;
21162;SDS011;10739;52.198;20.908;2023-01-28T10:05:57;28.48;;;17.98;;
21162;SDS011;10739;52.198;20.908;2023-01-28T10:08:58;28.40;;;17.15;;
21162;SDS011;10739;52.198;20.908;2023-01-28T10:17:42;27.23;;;17.83;;
21162;SDS011;10739;52.198;20.908;2023-01-28T10:25:56;30.65;;;18.40;;
21162;SDS011;10739;52.198;20.908;2023-01-28T10:28:29;24.40;;;16.83;;
21162;SDS011;10739;52.198;20.908;2023-01-28T10:30:56;27.67;;;15.80;;
21162;SDS011;10739;52.198;20.908;2023-01-28T10:33:36;25.58;;;16.35;;
21162;SDS011;10739;52.198;20.908;2023-01-28T10:36:04;23.88;;;14.73;;
21162;SDS011;10739;52.198;20.908;2023-01-28T10:38:33;21.05;;;14.73;;
21162;SDS011;10739;52.198;20.908;2023-01-28T10:41:01;25.38;;;16.33;;
21162;SDS011;10739;52.198;20.908;2023-01-28T10:43:30;22.27;;;14.55;;
21162;SDS011;10739;52.198;20.908;2023-01-28T10:46:04;26.65;;;15.73;;
21162;SDS011;10739;52.198;20.908;2023-01-28T10:51:52;25.83;;;16.23;;
21162;SDS011;10739;52.198;20.908;2023-01-28T10:54:23;28.73;;;17.25;;
21162;SDS011;10739;52.198;20.908;2023-01-28T10:57:26;25.35;;;16.63;;
21162;SDS011;10739;52.198;20.908;2023-01-28T10:59:46;23.75;;;15.25;;
21162;SDS011;10739;52.198;20.908;2023-01-28T11:02:25;26.08;;;15.63;;
21162;SDS011;10739;52.198;20.908;2023-01-28T11:07:47;24.30;;;15.57;;
21162;SDS011;10739;52.198;20.908;2023-01-28T11:10:22;25.55;;;16.17;;
21162;SDS011;10739;52.198;20.908;2023-01-28T11:12:59;23.38;;;15.70;;
21162;SDS011;10739;52.198;20.908;2023-01-28T11:15:29;23.17;;;15.15;;
21162;SDS011;10739;52.198;20.908;2023-01-28T11:17:57;24.65;;;16.00;;
21162;SDS011;10739;52.198;20.908;2023-01-28T11:20:29;24.58;;;15.50;;
21162;SDS011;10739;52.198;20.908;2023-01-28T11:23:03;21.23;;;14.70;;
21162;SDS011;10739;52.198;20.908;2023-01-28T11:25:30;26.75;;;15.95;;
21162;SDS011;10739;52.198;20.908;2023-01-28T11:28:04;23.77;;;14.88;;
21162;SDS011;10739;52.198;20.908;2023-01-28T11:30:42;22.25;;;15.30;;
21162;SDS011;10739;52.198;20.908;2023-01-28T11:33:17;23.77;;;14.75;;
21162;SDS011;10739;52.198;20.908;2023-01-28T11:38:33;22.90;;;15.10;;
21162;SDS011;10739;52.198;20.908;2023-01-28T11:41:00;24.65;;;16.00;;
21162;SDS011;10739;52.198;20.908;2023-01-28T11:43:28;24.30;;;16.45;;
21162;SDS011;10739;52.198;20.908;2023-01-28T11:57:58;26.98;;;16.80;;
21162;SDS011;10739;52.198;20.908;2023-01-28T12:09:41;26.30;;;18.80;;
21162;SDS011;10739;52.198;20.908;2023-01-28T12:21:03;25.73;;;16.85;;
21162;SDS011;10739;52.198;20.908;2023-01-28T12:29:17;28.88;;;17.95;;
21162;SDS011;10739;52.198;20.908;2023-01-28T12:40:53;26.00;;;17.05;;
21162;SDS011;10739;52.198;20.908;2023-01-28T12:46:44;27.00;;;16.30;;
21162;SDS011;10739;52.198;20.908;2023-01-28T12:49:21;29.05;;;17.55;;
21162;SDS011;10739;52.198;20.908;2023-01-28T12:52:16;29.80;;;17.77;;
21162;SDS011;10739;52.198;20.908;2023-01-28T12:55:00;43.88;;;22.95;;
21162;SDS011;10739;52.198;20.908;2023-01-28T12:57:30;33.08;;;19.95;;
21162;SDS011;10739;52.198;20.908;2023-01-28T13:00:05;30.98;;;18.48;;
21162;SDS011;10739;52.198;20.908;2023-01-28T13:02:57;29.77;;;18.42;;
21162;SDS011;10739;52.198;20.908;2023-01-28T13:05:45;25.77;;;16.90;;
21162;SDS011;10739;52.198;20.908;2023-01-28T13:08:45;28.83;;;17.40;;
21162;SDS011;10739;52.198;20.908;2023-01-28T13:11:14;28.30;;;18.45;;
21162;SDS011;10739;52.198;20.908;2023-01-28T13:13:44;26.30;;;16.58;;
21162;SDS011;10739;52.198;20.908;2023-01-28T13:16:11;27.95;;;18.10;;
21162;SDS011;10739;52.198;20.908;2023-01-28T13:21:05;28.73;;;19.15;;
21162;SDS011;10739;52.198;20.908;2023-01-28T13:28:47;26.25;;;17.52;;
21162;SDS011;10739;52.198;20.908;2023-01-28T13:31:22;24.85;;;16.52;;
21162;SDS011;10739;52.198;20.908;2023-01-28T13:36:32;29.50;;;18.08;;
21162;SDS011;10739;52.198;20.908;2023-01-28T13:41:49;31.85;;;20.23;;
21162;SDS011;10739;52.198;20.908;2023-01-28T13:44:33;28.85;;;19.45;;
21162;SDS011;10739;52.198;20.908;2023-01-28T13:49:38;31.65;;;20.88;;
21162;SDS011;10739;52.198;20.908;2023-01-28T13:52:28;31.75;;;20.92;;
21162;SDS011;10739;52.198;20.908;2023-01-28T13:57:42;31.52;;;20.42;;
21162;SDS011;10739;52.198;20.908;2023-01-28T14:17:52;29.65;;;17.90;;
21162;SDS011;10739;52.198;20.908;2023-01-28T14:20:22;30.73;;;18.27;;
21162;SDS011;10739;52.198;20.908;2023-01-28T14:23:03;26.95;;;17.67;;
21162;SDS011;10739;52.198;20.908;2023-01-28T14:28:23;28.10;;;16.98;;
21162;SDS011;10739;52.198;20.908;2023-01-28T14:36:39;16.27;;;11.73;;
21162;SDS011;10739;52.198;20.908;2023-01-28T14:39:19;14.07;;;9.80;;
21162;SDS011;10739;52.198;20.908;2023-01-28T14:41:54;17.50;;;11.10;;
21162;SDS011;10739;52.198;20.908;2023-01-28T14:44:53;19.77;;;12.40;;
21162;SDS011;10739;52.198;20.908;2023-01-28T14:47:55;15.02;;;9.57;;
21162;SDS011;10739;52.198;20.908;2023-01-28T14:54:22;17.30;;;11.45;;
21162;SDS011;10739;52.198;20.908;2023-01-28T14:59:46;16.83;;;12.02;;
21162;SDS011;10739;52.198;20.908;2023-01-28T15:02:23;18.63;;;11.48;;
21162;SDS011;10739;52.198;20.908;2023-01-28T15:04:53;17.38;;;11.32;;
21162;SDS011;10739;52.198;20.908;2023-01-28T15:07:22;15.38;;;11.20;;
21162;SDS011;10739;52.198;20.908;2023-01-28T15:10:00;18.20;;;12.05;;
21162;SDS011;10739;52.198;20.908;2023-01-28T15:12:43;18.70;;;11.77;;
21162;SDS011;10739;52.198;20.908;2023-01-28T15:15:40;21.95;;;13.35;;
21162;SDS011;10739;52.198;20.908;2023-01-28T15:18:23;21.23;;;14.00;;
21162;SDS011;10739;52.198;20.908;2023-01-28T15:20:58;22.30;;;14.82;;
21162;SDS011;10739;52.198;20.908;2023-01-28T15:23:27;22.33;;;14.80;;
21162;SDS011;10739;52.198;20.908;2023-01-28T15:26:05;21.60;;;14.25;;
21162;SDS011;10739;52.198;20.908;2023-01-28T15:28:41;22.10;;;16.05;;
21162;SDS011;10739;52.198;20.908;2023-01-28T15:36:44;19.05;;;13.43;;
21162;SDS011;10739;52.198;20.908;2023-01-28T15:39:20;19.63;;;13.15;;
21162;SDS011;10739;52.198;20.908;2023-01-28T15:44:29;16.13;;;10.95;;
21162;SDS011;10739;52.198;20.908;2023-01-28T15:47:01;7.97;;;5.53;;
21162;SDS011;10739;52.198;20.908;2023-01-28T15:49:41;4.10;;;3.70;;
21162;SDS011;10739;52.198;20.908;2023-01-28T15:52:12;5.40;;;3.63;;
21162;SDS011;10739;52.198;20.908;2023-01-28T15:54:41;4.35;;;3.30;;
21162;SDS011;10739;52.198;20.908;2023-01-28T15:59:49;4.88;;;3.55;;
21162;SDS011;10739;52.198;20.908;2023-01-28T16:02:16;5.03;;;3.88;;
21162;SDS011;10739;52.198;20.908;2023-01-28T16:04:56;6.40;;;5.18;;
21162;SDS011;10739;52.198;20.908;2023-01-28T16:07:29;10.65;;;5.95;;
21162;SDS011;10739;52.198;20.908;2023-01-28T16:09:59;13.18;;;9.23;;
21162;SDS011;10739;52.198;20.908;2023-01-28T16:12:28;19.33;;;11.35;;
21162;SDS011;10739;52.198;20.908;2023-01-28T16:14:59;22.85;;;13.65;;
21162;SDS011;10739;52.198;20.908;2023-01-28T16:17:44;21.30;;;14.32;;
21162;SDS011;10739;52.198;20.908;2023-01-28T16:20:19;23.92;;;14.07;;
21162;SDS011;10739;52.198;20.908;2023-01-28T16:22:53;21.65;;;14.88;;
21162;SDS011;10739;52.198;20.908;2023-01-28T16:25:28;19.15;;;13.63;;
21162;SDS011;10739;52.198;20.908;2023-01-28T16:27:59;21.75;;;14.57;;
21162;SDS011;10739;52.198;20.908;2023-01-28T16:30:27;22.63;;;14.38;;
21162;SDS011;10739;52.198;20.908;2023-01-28T16:32:54;22.95;;;14.70;;
21162;SDS011;10739;52.198;20.908;2023-01-28T16:35:22;24.20;;;16.10;;
21162;SDS011;10739;52.198;20.908;2023-01-28T16:37:52;23.15;;;15.13;;
21162;SDS011;10739;52.198;20.908;2023-01-28T16:40:20;22.92;;;14.95;;
21162;SDS011;10739;52.198;20.908;2023-01-28T16:42:48;20.17;;;13.48;;
21162;SDS011;10739;52.198;20.908;2023-01-28T16:45:23;25.75;;;15.05;;
21162;SDS011;10739;52.198;20.908;2023-01-28T16:47:51;28.13;;;16.03;;
21162;SDS011;10739;52.198;20.908;2023-01-28T16:50:18;26.08;;;16.02;;
21162;SDS011;10739;52.198;20.908;2023-01-28T16:52:47;26.52;;;16.33;;
21162;SDS011;10739;52.198;20.908;2023-01-28T16:55:18;28.42;;;17.27;;
21162;SDS011;10739;52.198;20.908;2023-01-28T16:57:47;26.40;;;16.63;;
21162;SDS011;10739;52.198;20.908;2023-01-28T17:00:19;27.45;;;17.90;;
21162;SDS011;10739;52.198;20.908;2023-01-28T17:02:49;25.27;;;16.33;;
21162;SDS011;10739;52.198;20.908;2023-01-28T17:05:17;25.65;;;15.75;;
21162;SDS011;10739;52.198;20.908;2023-01-28T17:07:46;27.38;;;16.23;;
21162;SDS011;10739;52.198;20.908;2023-01-28T17:10:14;22.67;;;14.63;;
21162;SDS011;10739;52.198;20.908;2023-01-28T17:12:42;23.98;;;14.35;;
21162;SDS011;10739;52.198;20.908;2023-01-28T17:15:09;24.80;;;14.55;;
21162;SDS011;10739;52.198;20.908;2023-01-28T17:17:36;20.60;;;14.18;;